DNMM/LOS METAR and TAF weather

Enter ICAO airport designator
Station Type Date Time Source
DNMM METAR 2019/12/13 14:00 UTC NOAA

DNMM 131400Z 22007KT 6000 SCT013 FEW020CB 30/26 Q1011 NOSIG


Station Type Date Time Source
DNMM Decoded METAR 2019/12/13 14:00 UTC NOAA

Lagos / Ikeja, Nigeria (DNMM) 06-35N 003-20E 38M
Dec 13, 2019 - 09:00 AM EST / 2019.12.13 1400 UTC
Wind: from the SW (220 degrees) at 8 MPH (7 KT):0
Visibility: 3 mile(s):0
Sky conditions: partly cloudy
Weather: Cumulonimbus clouds observed
Temperature: 86 F (30 C)
Heat index: 99.3 F (37.4 C):1
Dew Point: 78 F (26 C)
Relative Humidity: 79%
Pressure (altimeter): 29.85 in. Hg (1011 hPa)
ob: DNMM 131400Z 22007KT 6000 SCT013 FEW020CB 30/26 Q1011 NOSIG
cycle: 14

Station Type Date Time Source
DNMM TAF 2019/12/13 12:21 UTC NOAA

TAF DNMM 131100Z 1312/1418 24010KT 8000 SCT014 FEW020CB
TEMPO 1312/1317 TS BKN013 FEW020CB
BECMG 1317/1319 VRB02KT SCT012
TEMPO 1405/1408 3000 BR/HZ

Example: see airport list